sensor_id;sensor_type;location;lat;lon;timestamp;P1;durP1;ratioP1;P2;durP2;ratioP2
77466;SDS011;66564;42.482;25.548;2023-01-10T00:03:29;27.75;;;12.73;;
77466;SDS011;66564;42.482;25.548;2023-01-10T00:10:27;35.20;;;11.57;;
77466;SDS011;66564;42.482;25.548;2023-01-10T00:16:36;38.58;;;14.90;;
77466;SDS011;66564;42.482;25.548;2023-01-10T00:19:12;42.03;;;15.68;;
77466;SDS011;66564;42.482;25.548;2023-01-10T00:25:20;39.80;;;14.60;;
77466;SDS011;66564;42.482;25.548;2023-01-10T00:31:45;41.45;;;14.73;;
77466;SDS011;66564;42.482;25.548;2023-01-10T00:37:44;34.28;;;15.77;;
77466;SDS011;66564;42.482;25.548;2023-01-10T00:40:10;39.65;;;15.65;;
77466;SDS011;66564;42.482;25.548;2023-01-10T00:42:36;42.65;;;16.73;;
77466;SDS011;66564;42.482;25.548;2023-01-10T00:45:20;41.17;;;17.95;;
77466;SDS011;66564;42.482;25.548;2023-01-10T00:47:48;39.95;;;17.27;;
77466;SDS011;66564;42.482;25.548;2023-01-10T00:50:14;39.80;;;17.25;;
77466;SDS011;66564;42.482;25.548;2023-01-10T00:52:40;38.80;;;18.02;;
77466;SDS011;66564;42.482;25.548;2023-01-10T00:55:06;33.22;;;16.33;;
77466;SDS011;66564;42.482;25.548;2023-01-10T00:57:31;35.33;;;16.58;;
77466;SDS011;66564;42.482;25.548;2023-01-10T00:59:57;35.05;;;16.85;;
77466;SDS011;66564;42.482;25.548;2023-01-10T01:02:23;37.50;;;17.48;;
77466;SDS011;66564;42.482;25.548;2023-01-10T01:04:48;35.45;;;16.65;;
77466;SDS011;66564;42.482;25.548;2023-01-10T01:07:14;31.13;;;15.15;;
77466;SDS011;66564;42.482;25.548;2023-01-10T01:09:39;26.52;;;14.88;;
77466;SDS011;66564;42.482;25.548;2023-01-10T01:12:25;29.10;;;15.07;;
77466;SDS011;66564;42.482;25.548;2023-01-10T01:14:50;32.20;;;16.48;;
77466;SDS011;66564;42.482;25.548;2023-01-10T01:17:16;30.38;;;15.25;;
77466;SDS011;66564;42.482;25.548;2023-01-10T01:19:42;28.38;;;15.02;;
77466;SDS011;66564;42.482;25.548;2023-01-10T01:22:08;27.10;;;14.73;;
77466;SDS011;66564;42.482;25.548;2023-01-10T01:24:33;29.80;;;16.67;;
77466;SDS011;66564;42.482;25.548;2023-01-10T01:26:59;24.40;;;13.70;;
77466;SDS011;66564;42.482;25.548;2023-01-10T01:29:24;27.55;;;15.27;;
77466;SDS011;66564;42.482;25.548;2023-01-10T01:31:50;23.88;;;13.50;;
77466;SDS011;66564;42.482;25.548;2023-01-10T01:34:15;25.95;;;14.90;;
77466;SDS011;66564;42.482;25.548;2023-01-10T01:36:41;27.85;;;13.98;;
77466;SDS011;66564;42.482;25.548;2023-01-10T01:39:06;36.95;;;16.75;;
77466;SDS011;66564;42.482;25.548;2023-01-10T01:41:32;29.45;;;15.23;;
77466;SDS011;66564;42.482;25.548;2023-01-10T01:44:17;28.10;;;14.57;;
77466;SDS011;66564;42.482;25.548;2023-01-10T01:47:03;30.20;;;14.48;;
77466;SDS011;66564;42.482;25.548;2023-01-10T01:56:45;44.60;;;17.48;;
77466;SDS011;66564;42.482;25.548;2023-01-10T02:00:09;44.28;;;17.50;;
77466;SDS011;66564;42.482;25.548;2023-01-10T02:03:34;31.83;;;15.65;;
77466;SDS011;66564;42.482;25.548;2023-01-10T02:07:02;39.40;;;16.88;;
77466;SDS011;66564;42.482;25.548;2023-01-10T02:10:41;44.08;;;16.38;;
77466;SDS011;66564;42.482;25.548;2023-01-10T02:14:05;37.72;;;16.65;;
77466;SDS011;66564;42.482;25.548;2023-01-10T02:17:33;36.90;;;17.38;;
77466;SDS011;66564;42.482;25.548;2023-01-10T02:39:48;45.10;;;17.48;;
77466;SDS011;66564;42.482;25.548;2023-01-10T02:43:16;51.13;;;19.40;;
77466;SDS011;66564;42.482;25.548;2023-01-10T02:46:40;46.65;;;18.33;;
77466;SDS011;66564;42.482;25.548;2023-01-10T02:53:21;45.22;;;17.88;;
77466;SDS011;66564;42.482;25.548;2023-01-10T03:03:08;51.95;;;20.90;;
77466;SDS011;66564;42.482;25.548;2023-01-10T03:09:29;56.63;;;20.58;;
77466;SDS011;66564;42.482;25.548;2023-01-10T03:15:51;58.92;;;21.30;;
77466;SDS011;66564;42.482;25.548;2023-01-10T03:19:16;53.30;;;21.02;;
77466;SDS011;66564;42.482;25.548;2023-01-10T03:22:41;56.10;;;20.02;;
77466;SDS011;66564;42.482;25.548;2023-01-10T03:26:06;56.30;;;21.00;;
77466;SDS011;66564;42.482;25.548;2023-01-10T03:29:41;62.38;;;21.35;;
77466;SDS011;66564;42.482;25.548;2023-01-10T03:33:01;47.83;;;18.65;;
77466;SDS011;66564;42.482;25.548;2023-01-10T03:36:46;61.17;;;20.77;;
77466;SDS011;66564;42.482;25.548;2023-01-10T03:39:53;48.90;;;20.45;;
77466;SDS011;66564;42.482;25.548;2023-01-10T03:43:20;49.35;;;19.33;;
77466;SDS011;66564;42.482;25.548;2023-01-10T03:46:49;52.85;;;18.65;;
77466;SDS011;66564;42.482;25.548;2023-01-10T03:50:19;44.70;;;19.55;;
77466;SDS011;66564;42.482;25.548;2023-01-10T03:53:42;35.42;;;16.20;;
77466;SDS011;66564;42.482;25.548;2023-01-10T03:57:08;45.55;;;17.67;;
77466;SDS011;66564;42.482;25.548;2023-01-10T04:00:35;35.78;;;16.92;;
77466;SDS011;66564;42.482;25.548;2023-01-10T04:04:02;33.28;;;16.13;;
77466;SDS011;66564;42.482;25.548;2023-01-10T04:07:27;31.00;;;16.15;;
77466;SDS011;66564;42.482;25.548;2023-01-10T04:10:53;29.90;;;15.52;;
77466;SDS011;66564;42.482;25.548;2023-01-10T04:14:18;33.25;;;16.80;;
77466;SDS011;66564;42.482;25.548;2023-01-10T04:17:43;25.67;;;14.95;;
77466;SDS011;66564;42.482;25.548;2023-01-10T04:21:08;30.65;;;15.98;;
77466;SDS011;66564;42.482;25.548;2023-01-10T04:24:34;31.77;;;16.75;;
77466;SDS011;66564;42.482;25.548;2023-01-10T04:27:59;39.15;;;15.07;;
77466;SDS011;66564;42.482;25.548;2023-01-10T04:31:24;29.40;;;14.90;;
77466;SDS011;66564;42.482;25.548;2023-01-10T04:34:49;29.52;;;16.42;;
77466;SDS011;66564;42.482;25.548;2023-01-10T04:38:17;47.03;;;20.63;;
77466;SDS011;66564;42.482;25.548;2023-01-10T04:41:42;41.83;;;20.10;;
77466;SDS011;66564;42.482;25.548;2023-01-10T04:45:07;41.05;;;19.88;;
77466;SDS011;66564;42.482;25.548;2023-01-10T04:48:32;49.33;;;20.63;;
77466;SDS011;66564;42.482;25.548;2023-01-10T04:51:01;49.17;;;21.65;;
77466;SDS011;66564;42.482;25.548;2023-01-10T04:53:35;48.55;;;20.92;;
77466;SDS011;66564;42.482;25.548;2023-01-10T04:57:02;49.35;;;21.30;;
77466;SDS011;66564;42.482;25.548;2023-01-10T05:00:29;40.70;;;20.00;;
77466;SDS011;66564;42.482;25.548;2023-01-10T05:03:55;44.58;;;19.33;;
77466;SDS011;66564;42.482;25.548;2023-01-10T05:07:20;50.90;;;19.08;;
77466;SDS011;66564;42.482;25.548;2023-01-10T05:09:45;55.63;;;20.65;;
77466;SDS011;66564;42.482;25.548;2023-01-10T05:13:11;49.28;;;20.77;;
77466;SDS011;66564;42.482;25.548;2023-01-10T05:16:00;50.33;;;19.85;;
77466;SDS011;66564;42.482;25.548;2023-01-10T05:18:26;50.35;;;20.40;;
77466;SDS011;66564;42.482;25.548;2023-01-10T05:20:52;47.40;;;18.73;;
77466;SDS011;66564;42.482;25.548;2023-01-10T05:23:23;47.13;;;20.48;;
77466;SDS011;66564;42.482;25.548;2023-01-10T05:25:49;57.55;;;21.10;;
77466;SDS011;66564;42.482;25.548;2023-01-10T05:29:16;39.90;;;19.08;;
77466;SDS011;66564;42.482;25.548;2023-01-10T05:32:42;35.78;;;18.15;;
77466;SDS011;66564;42.482;25.548;2023-01-10T05:36:07;41.85;;;20.30;;
77466;SDS011;66564;42.482;25.548;2023-01-10T05:39:32;43.28;;;20.30;;
77466;SDS011;66564;42.482;25.548;2023-01-10T05:42:57;44.50;;;18.15;;
77466;SDS011;66564;42.482;25.548;2023-01-10T05:46:23;38.40;;;18.98;;
77466;SDS011;66564;42.482;25.548;2023-01-10T05:49:50;35.28;;;19.67;;
77466;SDS011;66564;42.482;25.548;2023-01-10T05:53:15;38.83;;;19.17;;
77466;SDS011;66564;42.482;25.548;2023-01-10T05:56:40;44.15;;;21.60;;
77466;SDS011;66564;42.482;25.548;2023-01-10T06:00:06;43.10;;;19.88;;
77466;SDS011;66564;42.482;25.548;2023-01-10T06:03:32;46.40;;;23.85;;
77466;SDS011;66564;42.482;25.548;2023-01-10T06:06:57;46.30;;;23.35;;
77466;SDS011;66564;42.482;25.548;2023-01-10T06:10:22;48.38;;;25.25;;
77466;SDS011;66564;42.482;25.548;2023-01-10T06:13:48;41.50;;;21.92;;
77466;SDS011;66564;42.482;25.548;2023-01-10T06:17:13;54.40;;;25.67;;
77466;SDS011;66564;42.482;25.548;2023-01-10T06:20:39;44.17;;;22.83;;
77466;SDS011;66564;42.482;25.548;2023-01-10T06:23:05;54.92;;;27.25;;
77466;SDS011;66564;42.482;25.548;2023-01-10T06:25:31;60.42;;;26.60;;
77466;SDS011;66564;42.482;25.548;2023-01-10T06:28:04;46.10;;;24.45;;
77466;SDS011;66564;42.482;25.548;2023-01-10T06:30:29;49.70;;;25.45;;
77466;SDS011;66564;42.482;25.548;2023-01-10T06:32:59;64.53;;;27.58;;
77466;SDS011;66564;42.482;25.548;2023-01-10T06:35:28;52.83;;;24.83;;
77466;SDS011;66564;42.482;25.548;2023-01-10T06:37:55;57.17;;;25.88;;
77466;SDS011;66564;42.482;25.548;2023-01-10T06:40:21;55.60;;;25.58;;
77466;SDS011;66564;42.482;25.548;2023-01-10T06:42:46;46.20;;;25.63;;
77466;SDS011;66564;42.482;25.548;2023-01-10T06:45:14;54.33;;;27.35;;
77466;SDS011;66564;42.482;25.548;2023-01-10T06:47:40;99.13;;;28.30;;
77466;SDS011;66564;42.482;25.548;2023-01-10T06:50:06;57.80;;;26.17;;
77466;SDS011;66564;42.482;25.548;2023-01-10T06:52:36;80.18;;;28.55;;
77466;SDS011;66564;42.482;25.548;2023-01-10T06:55:02;60.25;;;27.30;;
77466;SDS011;66564;42.482;25.548;2023-01-10T06:58:27;80.60;;;25.98;;
77466;SDS011;66564;42.482;25.548;2023-01-10T07:01:52;105.22;;;29.10;;
77466;SDS011;66564;42.482;25.548;2023-01-10T07:05:17;76.97;;;27.60;;
77466;SDS011;66564;42.482;25.548;2023-01-10T07:07:43;192.77;;;33.38;;
77466;SDS011;66564;42.482;25.548;2023-01-10T07:10:11;181.82;;;31.25;;
77466;SDS011;66564;42.482;25.548;2023-01-10T07:12:37;204.85;;;33.28;;
77466;SDS011;66564;42.482;25.548;2023-01-10T07:15:05;127.20;;;28.40;;
77466;SDS011;66564;42.482;25.548;2023-01-10T07:17:31;202.82;;;33.28;;
77466;SDS011;66564;42.482;25.548;2023-01-10T07:19:57;173.85;;;32.72;;
77466;SDS011;66564;42.482;25.548;2023-01-10T07:22:28;178.95;;;33.38;;
77466;SDS011;66564;42.482;25.548;2023-01-10T07:24:54;55.47;;;27.02;;
77466;SDS011;66564;42.482;25.548;2023-01-10T07:27:19;118.90;;;27.48;;
77466;SDS011;66564;42.482;25.548;2023-01-10T07:29:45;160.57;;;25.33;;
77466;SDS011;66564;42.482;25.548;2023-01-10T07:32:10;147.18;;;29.92;;
77466;SDS011;66564;42.482;25.548;2023-01-10T07:34:35;61.58;;;25.75;;
77466;SDS011;66564;42.482;25.548;2023-01-10T07:37:01;72.05;;;25.80;;
77466;SDS011;66564;42.482;25.548;2023-01-10T07:39:28;54.45;;;24.60;;
77466;SDS011;66564;42.482;25.548;2023-01-10T07:41:53;59.15;;;24.35;;
77466;SDS011;66564;42.482;25.548;2023-01-10T07:45:18;38.28;;;21.65;;
77466;SDS011;66564;42.482;25.548;2023-01-10T07:47:44;33.63;;;19.90;;
77466;SDS011;66564;42.482;25.548;2023-01-10T07:50:09;42.80;;;22.20;;
77466;SDS011;66564;42.482;25.548;2023-01-10T07:52:35;39.45;;;21.60;;
77466;SDS011;66564;42.482;25.548;2023-01-10T07:55:07;36.47;;;21.10;;
77466;SDS011;66564;42.482;25.548;2023-01-10T08:11:32;33.67;;;22.83;;
77466;SDS011;66564;42.482;25.548;2023-01-10T08:14:00;42.00;;;23.83;;
77466;SDS011;66564;42.482;25.548;2023-01-10T08:16:28;45.22;;;23.17;;
77466;SDS011;66564;42.482;25.548;2023-01-10T08:18:54;101.40;;;32.50;;
77466;SDS011;66564;42.482;25.548;2023-01-10T08:21:19;135.90;;;36.22;;
77466;SDS011;66564;42.482;25.548;2023-01-10T08:23:45;111.63;;;32.78;;
77466;SDS011;66564;42.482;25.548;2023-01-10T08:26:11;48.28;;;28.25;;
77466;SDS011;66564;42.482;25.548;2023-01-10T08:28:36;76.72;;;29.58;;
77466;SDS011;66564;42.482;25.548;2023-01-10T08:32:01;63.45;;;27.15;;
77466;SDS011;66564;42.482;25.548;2023-01-10T08:35:27;121.65;;;31.85;;
77466;SDS011;66564;42.482;25.548;2023-01-10T08:38:53;114.35;;;28.70;;
77466;SDS011;66564;42.482;25.548;2023-01-10T08:41:19;101.88;;;30.60;;
77466;SDS011;66564;42.482;25.548;2023-01-10T08:43:47;101.47;;;30.67;;
77466;SDS011;66564;42.482;25.548;2023-01-10T08:46:14;84.55;;;30.05;;
77466;SDS011;66564;42.482;25.548;2023-01-10T08:48:40;49.20;;;26.83;;
77466;SDS011;66564;42.482;25.548;2023-01-10T08:51:08;42.20;;;25.35;;
77466;SDS011;66564;42.482;25.548;2023-01-10T08:53:34;40.85;;;25.42;;
77466;SDS011;66564;42.482;25.548;2023-01-10T08:56:00;49.35;;;27.10;;
77466;SDS011;66564;42.482;25.548;2023-01-10T08:58:26;37.80;;;24.92;;
77466;SDS011;66564;42.482;25.548;2023-01-10T09:00:52;43.10;;;26.23;;
77466;SDS011;66564;42.482;25.548;2023-01-10T09:03:17;40.10;;;24.17;;
77466;SDS011;66564;42.482;25.548;2023-01-10T09:05:43;42.38;;;25.02;;
77466;SDS011;66564;42.482;25.548;2023-01-10T09:08:09;35.97;;;24.25;;
77466;SDS011;66564;42.482;25.548;2023-01-10T09:10:34;48.22;;;25.13;;
77466;SDS011;66564;42.482;25.548;2023-01-10T09:13:00;40.13;;;25.30;;
77466;SDS011;66564;42.482;25.548;2023-01-10T09:15:27;37.13;;;23.92;;
77466;SDS011;66564;42.482;25.548;2023-01-10T09:18:53;40.13;;;23.73;;
77466;SDS011;66564;42.482;25.548;2023-01-10T09:22:20;39.08;;;22.38;;
77466;SDS011;66564;42.482;25.548;2023-01-10T09:25:43;35.05;;;22.67;;
77466;SDS011;66564;42.482;25.548;2023-01-10T09:28:13;34.42;;;23.08;;
77466;SDS011;66564;42.482;25.548;2023-01-10T09:30:54;37.45;;;22.58;;
77466;SDS011;66564;42.482;25.548;2023-01-10T09:33:19;37.70;;;22.50;;
77466;SDS011;66564;42.482;25.548;2023-01-10T09:35:45;41.80;;;23.77;;
77466;SDS011;66564;42.482;25.548;2023-01-10T09:38:11;42.40;;;23.38;;
77466;SDS011;66564;42.482;25.548;2023-01-10T09:51:48;40.95;;;23.33;;
77466;SDS011;66564;42.482;25.548;2023-01-10T09:56:40;38.17;;;21.50;;
77466;SDS011;66564;42.482;25.548;2023-01-10T09:59:09;34.92;;;21.75;;
77466;SDS011;66564;42.482;25.548;2023-01-10T10:01:39;29.90;;;20.40;;
77466;SDS011;66564;42.482;25.548;2023-01-10T10:04:22;34.17;;;21.35;;
77466;SDS011;66564;42.482;25.548;2023-01-10T10:06:52;34.60;;;23.05;;
77466;SDS011;66564;42.482;25.548;2023-01-10T10:09:23;38.40;;;22.40;;
77466;SDS011;66564;42.482;25.548;2023-01-10T10:20:11;38.25;;;22.42;;
77466;SDS011;66564;42.482;25.548;2023-01-10T10:39:13;31.83;;;20.02;;
77466;SDS011;66564;42.482;25.548;2023-01-10T10:41:44;33.50;;;20.58;;
77466;SDS011;66564;42.482;25.548;2023-01-10T10:47:17;31.30;;;17.38;;
77466;SDS011;66564;42.482;25.548;2023-01-10T10:50:28;26.25;;;16.95;;
77466;SDS011;66564;42.482;25.548;2023-01-10T10:52:58;30.35;;;19.02;;
77466;SDS011;66564;42.482;25.548;2023-01-10T10:55:28;30.20;;;17.15;;
77466;SDS011;66564;42.482;25.548;2023-01-10T10:58:50;25.63;;;17.85;;
77466;SDS011;66564;42.482;25.548;2023-01-10T11:01:33;26.35;;;16.83;;
77466;SDS011;66564;42.482;25.548;2023-01-10T11:04:09;27.33;;;17.25;;
77466;SDS011;66564;42.482;25.548;2023-01-10T11:06:39;24.98;;;15.45;;
77466;SDS011;66564;42.482;25.548;2023-01-10T11:09:12;27.02;;;16.65;;
77466;SDS011;66564;42.482;25.548;2023-01-10T11:11:48;22.45;;;15.60;;
77466;SDS011;66564;42.482;25.548;2023-01-10T11:14:16;28.10;;;16.70;;
77466;SDS011;66564;42.482;25.548;2023-01-10T11:18:01;24.85;;;16.13;;
77466;SDS011;66564;42.482;25.548;2023-01-10T11:21:15;27.15;;;16.88;;
77466;SDS011;66564;42.482;25.548;2023-01-10T11:23:51;22.00;;;16.02;;
77466;SDS011;66564;42.482;25.548;2023-01-10T11:32:30;21.23;;;15.73;;
77466;SDS011;66564;42.482;25.548;2023-01-10T11:34:58;23.05;;;15.95;;
77466;SDS011;66564;42.482;25.548;2023-01-10T11:37:28;22.67;;;15.00;;
77466;SDS011;66564;42.482;25.548;2023-01-10T11:42:43;24.25;;;15.00;;
77466;SDS011;66564;42.482;25.548;2023-01-10T11:45:20;19.85;;;14.75;;
77466;SDS011;66564;42.482;25.548;2023-01-10T11:50:34;24.20;;;16.70;;
77466;SDS011;66564;42.482;25.548;2023-01-10T11:53:05;25.17;;;16.45;;
77466;SDS011;66564;42.482;25.548;2023-01-10T11:55:49;22.95;;;14.05;;
77466;SDS011;66564;42.482;25.548;2023-01-10T11:58:15;21.80;;;16.77;;
77466;SDS011;66564;42.482;25.548;2023-01-10T12:00:42;25.38;;;16.10;;
77466;SDS011;66564;42.482;25.548;2023-01-10T12:03:19;17.70;;;13.43;;
77466;SDS011;66564;42.482;25.548;2023-01-10T12:06:07;19.50;;;13.30;;
77466;SDS011;66564;42.482;25.548;2023-01-10T12:08:38;20.83;;;14.02;;
77466;SDS011;66564;42.482;25.548;2023-01-10T12:13:59;24.55;;;14.90;;
77466;SDS011;66564;42.482;25.548;2023-01-10T12:16:30;20.67;;;14.18;;
77466;SDS011;66564;42.482;25.548;2023-01-10T12:18:59;19.13;;;13.15;;
77466;SDS011;66564;42.482;25.548;2023-01-10T12:21:33;17.25;;;13.23;;
77466;SDS011;66564;42.482;25.548;2023-01-10T12:24:54;19.80;;;13.77;;
77466;SDS011;66564;42.482;25.548;2023-01-10T12:28:23;18.90;;;12.80;;
77466;SDS011;66564;42.482;25.548;2023-01-10T12:31:48;17.00;;;10.93;;
77466;SDS011;66564;42.482;25.548;2023-01-10T12:35:15;18.42;;;11.65;;
77466;SDS011;66564;42.482;25.548;2023-01-10T12:38:46;19.20;;;12.25;;
77466;SDS011;66564;42.482;25.548;2023-01-10T12:50:02;21.00;;;14.18;;
77466;SDS011;66564;42.482;25.548;2023-01-10T12:52:39;20.95;;;13.65;;
77466;SDS011;66564;42.482;25.548;2023-01-10T12:55:19;22.92;;;14.77;;
77466;SDS011;66564;42.482;25.548;2023-01-10T13:02:48;17.70;;;13.55;;
77466;SDS011;66564;42.482;25.548;2023-01-10T13:05:22;18.33;;;11.88;;
77466;SDS011;66564;42.482;25.548;2023-01-10T13:07:50;14.98;;;11.30;;
77466;SDS011;66564;42.482;25.548;2023-01-10T13:10:22;19.30;;;13.88;;
77466;SDS011;66564;42.482;25.548;2023-01-10T13:12:51;18.90;;;11.98;;
77466;SDS011;66564;42.482;25.548;2023-01-10T13:18:01;15.77;;;11.15;;
77466;SDS011;66564;42.482;25.548;2023-01-10T13:20:40;20.15;;;12.93;;
77466;SDS011;66564;42.482;25.548;2023-01-10T13:23:44;17.67;;;12.85;;
77466;SDS011;66564;42.482;25.548;2023-01-10T13:26:04;29.90;;;15.13;;
77466;SDS011;66564;42.482;25.548;2023-01-10T13:28:33;34.58;;;14.80;;
77466;SDS011;66564;42.482;25.548;2023-01-10T13:31:03;43.70;;;15.18;;
77466;SDS011;66564;42.482;25.548;2023-01-10T13:36:15;113.40;;;19.50;;
77466;SDS011;66564;42.482;25.548;2023-01-10T13:38:49;345.45;;;35.13;;
77466;SDS011;66564;42.482;25.548;2023-01-10T13:41:20;335.55;;;33.08;;
77466;SDS011;66564;42.482;25.548;2023-01-10T13:44:05;474.85;;;41.40;;
77466;SDS011;66564;42.482;25.548;2023-01-10T13:46:34;514.00;;;47.25;;
77466;SDS011;66564;42.482;25.548;2023-01-10T13:55:32;596.50;;;57.92;;
77466;SDS011;66564;42.482;25.548;2023-01-10T13:57:59;540.22;;;47.90;;
77466;SDS011;66564;42.482;25.548;2023-01-10T14:01:00;472.65;;;39.80;;
77466;SDS011;66564;42.482;25.548;2023-01-10T14:03:54;442.48;;;36.70;;
77466;SDS011;66564;42.482;25.548;2023-01-10T14:11:18;438.10;;;46.85;;
77466;SDS011;66564;42.482;25.548;2023-01-10T14:13:49;215.38;;;27.48;;
77466;SDS011;66564;42.482;25.548;2023-01-10T14:16:27;241.25;;;26.52;;
77466;SDS011;66564;42.482;25.548;2023-01-10T14:19:03;258.38;;;26.80;;
77466;SDS011;66564;42.482;25.548;2023-01-10T14:21:33;85.85;;;17.05;;
77466;SDS011;66564;42.482;25.548;2023-01-10T14:24:04;92.72;;;16.63;;
77466;SDS011;66564;42.482;25.548;2023-01-10T14:26:33;21.90;;;11.18;;
77466;SDS011;66564;42.482;25.548;2023-01-10T14:29:07;44.60;;;11.82;;
77466;SDS011;66564;42.482;25.548;2023-01-10T14:31:37;67.80;;;13.57;;
77466;SDS011;66564;42.482;25.548;2023-01-10T14:35:04;100.97;;;15.95;;
77466;SDS011;66564;42.482;25.548;2023-01-10T14:38:32;238.20;;;23.60;;
77466;SDS011;66564;42.482;25.548;2023-01-10T14:42:00;447.02;;;33.75;;
77466;SDS011;66564;42.482;25.548;2023-01-10T14:48:32;574.38;;;45.78;;
77466;SDS011;66564;42.482;25.548;2023-01-10T14:51:38;531.70;;;44.53;;
77466;SDS011;66564;42.482;25.548;2023-01-10T14:54:39;465.35;;;37.45;;
77466;SDS011;66564;42.482;25.548;2023-01-10T14:57:13;383.33;;;33.33;;
77466;SDS011;66564;42.482;25.548;2023-01-10T14:59:44;444.88;;;42.90;;
77466;SDS011;66564;42.482;25.548;2023-01-10T15:02:13;53.47;;;14.20;;
77466;SDS011;66564;42.482;25.548;2023-01-10T15:04:45;456.20;;;46.80;;
77466;SDS011;66564;42.482;25.548;2023-01-10T15:07:34;456.42;;;46.65;;
77466;SDS011;66564;42.482;25.548;2023-01-10T15:10:01;596.03;;;56.78;;
77466;SDS011;66564;42.482;25.548;2023-01-10T15:12:52;288.15;;;29.05;;
77466;SDS011;66564;42.482;25.548;2023-01-10T15:15:26;165.82;;;20.25;;
77466;SDS011;66564;42.482;25.548;2023-01-10T15:17:57;81.13;;;17.58;;
77466;SDS011;66564;42.482;25.548;2023-01-10T15:20:25;203.98;;;23.45;;
77466;SDS011;66564;42.482;25.548;2023-01-10T15:23:52;426.63;;;39.97;;
77466;SDS011;66564;42.482;25.548;2023-01-10T15:27:27;315.83;;;26.95;;
77466;SDS011;66564;42.482;25.548;2023-01-10T15:30:52;288.38;;;27.92;;
77466;SDS011;66564;42.482;25.548;2023-01-10T15:34:21;421.17;;;35.20;;
77466;SDS011;66564;42.482;25.548;2023-01-10T15:37:53;224.07;;;24.27;;
77466;SDS011;66564;42.482;25.548;2023-01-10T15:41:18;312.25;;;27.67;;
77466;SDS011;66564;42.482;25.548;2023-01-10T15:44:42;266.30;;;26.38;;
77466;SDS011;66564;42.482;25.548;2023-01-10T15:48:02;306.20;;;26.98;;
77466;SDS011;66564;42.482;25.548;2023-01-10T15:57:06;32.85;;;12.00;;
77466;SDS011;66564;42.482;25.548;2023-01-10T16:00:15;12.75;;;9.23;;
77466;SDS011;66564;42.482;25.548;2023-01-10T16:03:43;10.55;;;8.77;;
77466;SDS011;66564;42.482;25.548;2023-01-10T16:07:20;12.90;;;8.68;;
77466;SDS011;66564;42.482;25.548;2023-01-10T16:10:35;11.65;;;8.40;;
77466;SDS011;66564;42.482;25.548;2023-01-10T16:14:00;10.52;;;7.40;;
77466;SDS011;66564;42.482;25.548;2023-01-10T16:17:26;8.95;;;6.72;;
77466;SDS011;66564;42.482;25.548;2023-01-10T16:20:52;8.40;;;6.68;;
77466;SDS011;66564;42.482;25.548;2023-01-10T16:59:15;7.97;;;5.80;;
77466;SDS011;66564;42.482;25.548;2023-01-10T17:16:38;6.18;;;4.55;;
77466;SDS011;66564;42.482;25.548;2023-01-10T17:23:05;5.75;;;5.10;;
77466;SDS011;66564;42.482;25.548;2023-01-10T17:29:59;7.45;;;5.75;;
77466;SDS011;66564;42.482;25.548;2023-01-10T17:32:32;7.70;;;6.32;;
77466;SDS011;66564;42.482;25.548;2023-01-10T17:34:59;5.20;;;4.32;;
77466;SDS011;66564;42.482;25.548;2023-01-10T17:37:28;6.25;;;5.32;;
77466;SDS011;66564;42.482;25.548;2023-01-10T17:40:05;6.63;;;5.05;;
77466;SDS011;66564;42.482;25.548;2023-01-10T17:42:34;5.40;;;3.90;;
77466;SDS011;66564;42.482;25.548;2023-01-10T18:02:17;5.50;;;3.45;;
77466;SDS011;66564;42.482;25.548;2023-01-10T18:05:46;4.68;;;3.15;;
77466;SDS011;66564;42.482;25.548;2023-01-10T18:32:34;78.88;;;8.90;;
77466;SDS011;66564;42.482;25.548;2023-01-10T18:35:08;81.28;;;10.68;;
77466;SDS011;66564;42.482;25.548;2023-01-10T18:37:34;84.00;;;8.80;;
77466;SDS011;66564;42.482;25.548;2023-01-10T18:40:00;66.95;;;8.05;;
77466;SDS011;66564;42.482;25.548;2023-01-10T18:43:02;29.95;;;7.07;;
77466;SDS011;66564;42.482;25.548;2023-01-10T18:45:28;17.58;;;5.50;;
77466;SDS011;66564;42.482;25.548;2023-01-10T18:47:54;6.25;;;4.50;;
77466;SDS011;66564;42.482;25.548;2023-01-10T18:50:23;6.55;;;4.75;;
77466;SDS011;66564;42.482;25.548;2023-01-10T18:52:50;5.60;;;4.03;;
77466;SDS011;66564;42.482;25.548;2023-01-10T18:55:27;5.60;;;3.72;;
77466;SDS011;66564;42.482;25.548;2023-01-10T18:58:02;4.50;;;2.97;;
77466;SDS011;66564;42.482;25.548;2023-01-10T19:00:27;4.10;;;2.80;;
77466;SDS011;66564;42.482;25.548;2023-01-10T19:02:53;5.97;;;3.45;;
77466;SDS011;66564;42.482;25.548;2023-01-10T19:05:21;3.75;;;2.33;;
77466;SDS011;66564;42.482;25.548;2023-01-10T19:07:47;4.72;;;2.60;;
77466;SDS011;66564;42.482;25.548;2023-01-10T19:10:12;4.60;;;2.70;;
77466;SDS011;66564;42.482;25.548;2023-01-10T19:12:42;3.85;;;2.00;;
77466;SDS011;66564;42.482;25.548;2023-01-10T19:15:09;3.88;;;2.28;;
77466;SDS011;66564;42.482;25.548;2023-01-10T19:17:35;3.75;;;2.50;;
77466;SDS011;66564;42.482;25.548;2023-01-10T19:20:01;3.10;;;2.28;;
77466;SDS011;66564;42.482;25.548;2023-01-10T19:22:26;3.40;;;2.40;;
77466;SDS011;66564;42.482;25.548;2023-01-10T19:24:52;2.97;;;2.17;;
77466;SDS011;66564;42.482;25.548;2023-01-10T19:27:17;3.45;;;2.60;;
77466;SDS011;66564;42.482;25.548;2023-01-10T19:29:43;4.25;;;2.80;;
77466;SDS011;66564;42.482;25.548;2023-01-10T19:32:14;4.03;;;3.17;;
77466;SDS011;66564;42.482;25.548;2023-01-10T19:35:39;3.33;;;2.40;;
77466;SDS011;66564;42.482;25.548;2023-01-10T19:39:04;4.80;;;3.22;;
77466;SDS011;66564;42.482;25.548;2023-01-10T19:42:29;4.93;;;2.92;;
77466;SDS011;66564;42.482;25.548;2023-01-10T19:45:54;4.63;;;3.30;;
77466;SDS011;66564;42.482;25.548;2023-01-10T19:49:20;4.25;;;2.95;;
77466;SDS011;66564;42.482;25.548;2023-01-10T19:52:47;4.60;;;2.92;;
77466;SDS011;66564;42.482;25.548;2023-01-10T19:56:13;3.63;;;2.78;;
77466;SDS011;66564;42.482;25.548;2023-01-10T19:59:37;6.13;;;4.07;;
77466;SDS011;66564;42.482;25.548;2023-01-10T20:02:23;6.18;;;4.32;;
77466;SDS011;66564;42.482;25.548;2023-01-10T20:04:49;5.95;;;4.60;;
77466;SDS011;66564;42.482;25.548;2023-01-10T20:07:15;22.63;;;7.03;;
77466;SDS011;66564;42.482;25.548;2023-01-10T20:09:40;13.05;;;6.90;;
77466;SDS011;66564;42.482;25.548;2023-01-10T20:12:08;8.20;;;5.78;;
77466;SDS011;66564;42.482;25.548;2023-01-10T20:14:36;17.90;;;6.45;;
77466;SDS011;66564;42.482;25.548;2023-01-10T20:18:02;76.38;;;9.57;;
77466;SDS011;66564;42.482;25.548;2023-01-10T20:21:27;26.23;;;7.20;;
77466;SDS011;66564;42.482;25.548;2023-01-10T20:24:55;17.20;;;6.70;;
77466;SDS011;66564;42.482;25.548;2023-01-10T20:28:20;11.95;;;5.65;;
77466;SDS011;66564;42.482;25.548;2023-01-10T20:31:46;7.65;;;5.10;;
77466;SDS011;66564;42.482;25.548;2023-01-10T20:35:19;6.55;;;4.25;;
77466;SDS011;66564;42.482;25.548;2023-01-10T20:38:45;5.70;;;3.92;;
77466;SDS011;66564;42.482;25.548;2023-01-10T20:42:10;5.53;;;4.15;;
77466;SDS011;66564;42.482;25.548;2023-01-10T20:45:35;5.53;;;3.75;;
77466;SDS011;66564;42.482;25.548;2023-01-10T20:49:00;5.90;;;4.75;;
77466;SDS011;66564;42.482;25.548;2023-01-10T20:52:26;5.82;;;4.28;;